sensor_id;sensor_type;location;lat;lon;timestamp;temperature;humidity
8481;DHT22;4277;51.354;6.740;2023-07-29T12:13:36;22.90;99.90
8481;DHT22;4277;51.354;6.740;2023-07-29T12:16:02;23.80;85.70
8481;DHT22;4277;51.354;6.740;2023-07-29T12:18:32;23.70;82.90
8481;DHT22;4277;51.354;6.740;2023-07-29T12:20:58;23.50;90.00
8481;DHT22;4277;51.354;6.740;2023-07-29T12:23:24;23.40;91.00
8481;DHT22;4277;51.354;6.740;2023-07-29T12:30:43;23.20;88.00
8481;DHT22;4277;51.354;6.740;2023-07-29T12:33:09;23.50;89.50
8481;DHT22;4277;51.354;6.740;2023-07-29T12:35:38;23.50;90.60
8481;DHT22;4277;51.354;6.740;2023-07-29T12:38:03;23.60;93.70
8481;DHT22;4277;51.354;6.740;2023-07-29T12:40:29;23.60;85.10
8481;DHT22;4277;51.354;6.740;2023-07-29T12:42:55;23.60;84.70
8481;DHT22;4277;51.354;6.740;2023-07-29T12:45:21;23.50;92.50
8481;DHT22;4277;51.354;6.740;2023-07-29T12:47:52;23.50;81.90
8481;DHT22;4277;51.354;6.740;2023-07-29T12:50:17;23.50;91.20
8481;DHT22;4277;51.354;6.740;2023-07-29T12:52:43;23.60;88.40
8481;DHT22;4277;51.354;6.740;2023-07-29T12:55:08;23.70;85.80
8481;DHT22;4277;51.354;6.740;2023-07-29T12:57:38;23.80;82.00
8481;DHT22;4277;51.354;6.740;2023-07-29T13:00:04;24.00;90.30
8481;DHT22;4277;51.354;6.740;2023-07-29T13:02:31;24.00;77.10
8481;DHT22;4277;51.354;6.740;2023-07-29T13:04:57;23.90;76.00
8481;DHT22;4277;51.354;6.740;2023-07-29T13:07:22;23.90;80.70
8481;DHT22;4277;51.354;6.740;2023-07-29T13:09:48;23.80;75.20
8481;DHT22;4277;51.354;6.740;2023-07-29T13:12:13;23.70;85.80
8481;DHT22;4277;51.354;6.740;2023-07-29T13:14:39;23.60;82.70
8481;DHT22;4277;51.354;6.740;2023-07-29T13:17:05;23.50;79.10
8481;DHT22;4277;51.354;6.740;2023-07-29T16:02:38;23.40;81.10
8481;DHT22;4277;51.354;6.740;2023-07-29T16:05:06;24.10;98.30
8481;DHT22;4277;51.354;6.740;2023-07-29T16:07:31;24.10;92.50
8481;DHT22;4277;51.354;6.740;2023-07-29T16:09:57;24.30;94.30
8481;DHT22;4277;51.354;6.740;2023-07-29T16:12:23;24.50;93.40
8481;DHT22;4277;51.354;6.740;2023-07-29T16:14:49;24.60;91.20
8481;DHT22;4277;51.354;6.740;2023-07-29T16:17:15;24.80;89.60
8481;DHT22;4277;51.354;6.740;2023-07-29T16:20:00;24.80;90.70
8481;DHT22;4277;51.354;6.740;2023-07-29T16:22:27;25.00;87.50
8481;DHT22;4277;51.354;6.740;2023-07-29T16:24:52;25.10;85.00
8481;DHT22;4277;51.354;6.740;2023-07-29T16:27:21;25.10;79.20
8481;DHT22;4277;51.354;6.740;2023-07-29T16:29:48;25.30;80.90
8481;DHT22;4277;51.354;6.740;2023-07-29T16:32:15;25.60;70.50
8481;DHT22;4277;51.354;6.740;2023-07-29T16:34:40;25.40;70.00
8481;DHT22;4277;51.354;6.740;2023-07-29T16:37:06;25.30;71.00
8481;DHT22;4277;51.354;6.740;2023-07-29T17:54:58;25.00;70.60
8481;DHT22;4277;51.354;6.740;2023-07-29T17:57:24;24.60;91.70
8481;DHT22;4277;51.354;6.740;2023-07-29T17:59:49;24.60;90.90
8481;DHT22;4277;51.354;6.740;2023-07-29T18:02:15;24.70;92.10
8481;DHT22;4277;51.354;6.740;2023-07-29T18:04:40;24.60;87.20
8481;DHT22;4277;51.354;6.740;2023-07-29T18:07:06;24.50;88.20
8481;DHT22;4277;51.354;6.740;2023-07-29T18:09:31;24.30;91.20
8481;DHT22;4277;51.354;6.740;2023-07-29T18:11:57;24.10;91.20
